sensor_id;sensor_type;location;lat;lon;timestamp;pressure;altitude;pressure_sealevel;temperature;humidity
71567;BME280;59403;47.456;19.120;2023-05-07T00:01:40;100381.53;;;15.60;100.00
71567;BME280;59403;47.456;19.120;2023-05-07T00:04:08;100378.97;;;15.67;100.00
71567;BME280;59403;47.456;19.120;2023-05-07T00:06:35;100376.91;;;15.69;100.00
71567;BME280;59403;47.456;19.120;2023-05-07T00:09:02;100374.62;;;15.66;100.00
71567;BME280;59403;47.456;19.120;2023-05-07T00:11:30;100380.22;;;15.71;100.00
71567;BME280;59403;47.456;19.120;2023-05-07T00:13:57;100380.41;;;15.69;100.00
71567;BME280;59403;47.456;19.120;2023-05-07T00:16:24;100380.41;;;15.69;100.00
71567;BME280;59403;47.456;19.120;2023-05-07T00:18:52;100387.88;;;15.74;100.00
71567;BME280;59403;47.456;19.120;2023-05-07T00:21:20;100380.00;;;15.72;100.00
71567;BME280;59403;47.456;19.120;2023-05-07T00:23:47;100378.97;;;15.67;100.00
71567;BME280;59403;47.456;19.120;2023-05-07T00:26:14;100383.47;;;15.66;100.00
71567;BME280;59403;47.456;19.120;2023-05-07T00:28:41;100384.09;;;15.68;100.00
71567;BME280;59403;47.456;19.120;2023-05-07T00:31:08;100376.37;;;15.59;100.00
71567;BME280;59403;47.456;19.120;2023-05-07T00:33:35;100376.59;;;15.57;100.00
71567;BME280;59403;47.456;19.120;2023-05-07T00:36:02;100386.81;;;15.54;100.00
71567;BME280;59403;47.456;19.120;2023-05-07T00:38:31;100382.13;;;15.56;100.00
71567;BME280;59403;47.456;19.120;2023-05-07T00:40:57;100386.56;;;15.49;100.00
71567;BME280;59403;47.456;19.120;2023-05-07T00:43:24;100383.25;;;15.47;100.00
71567;BME280;59403;47.456;19.120;2023-05-07T00:45:53;100382.78;;;15.43;100.00
71567;BME280;59403;47.456;19.120;2023-05-07T00:48:20;100379.00;;;15.38;100.00
71567;BME280;59403;47.456;19.120;2023-05-07T00:50:47;100385.63;;;15.27;100.00
71567;BME280;59403;47.456;19.120;2023-05-07T00:53:14;100378.41;;;15.21;100.00
71567;BME280;59403;47.456;19.120;2023-05-07T00:55:42;100395.44;;;15.20;100.00
71567;BME280;59403;47.456;19.120;2023-05-07T00:58:09;100396.53;;;15.11;100.00
71567;BME280;59403;47.456;19.120;2023-05-07T04:49:35;100432.53;;;14.34;100.00
71567;BME280;59403;47.456;19.120;2023-05-07T04:52:01;100428.22;;;14.48;100.00
71567;BME280;59403;47.456;19.120;2023-05-07T04:54:28;100426.97;;;14.58;100.00
71567;BME280;59403;47.456;19.120;2023-05-07T04:56:55;100424.84;;;14.68;100.00
71567;BME280;59403;47.456;19.120;2023-05-07T04:59:22;100428.19;;;14.85;100.00
71567;BME280;59403;47.456;19.120;2023-05-07T05:01:49;100422.84;;;15.00;100.00
71567;BME280;59403;47.456;19.120;2023-05-07T05:04:16;100431.47;;;15.31;100.00
71567;BME280;59403;47.456;19.120;2023-05-07T05:06:44;100422.91;;;15.35;100.00
71567;BME280;59403;47.456;19.120;2023-05-07T05:09:11;100424.19;;;15.39;100.00
71567;BME280;59403;47.456;19.120;2023-05-07T05:11:39;100425.75;;;15.48;100.00
71567;BME280;59403;47.456;19.120;2023-05-07T05:14:06;100428.88;;;15.52;100.00
71567;BME280;59403;47.456;19.120;2023-05-07T05:16:33;100425.00;;;15.54;100.00
71567;BME280;59403;47.456;19.120;2023-05-07T05:19:01;100436.69;;;15.53;100.00
71567;BME280;59403;47.456;19.120;2023-05-07T05:21:28;100432.00;;;15.55;100.00
71567;BME280;59403;47.456;19.120;2023-05-07T05:23:56;100439.19;;;15.55;100.00
71567;BME280;59403;47.456;19.120;2023-05-07T05:26:23;100432.00;;;15.55;100.00
71567;BME280;59403;47.456;19.120;2023-05-07T05:28:50;100434.22;;;15.52;100.00
71567;BME280;59403;47.456;19.120;2023-05-07T05:31:17;100432.25;;;15.60;100.00
71567;BME280;59403;47.456;19.120;2023-05-07T05:33:43;100436.66;;;15.68;100.00
71567;BME280;59403;47.456;19.120;2023-05-07T05:36:10;100437.00;;;15.79;100.00
71567;BME280;59403;47.456;19.120;2023-05-07T05:38:39;100434.47;;;15.93;100.00
71567;BME280;59403;47.456;19.120;2023-05-07T05:41:07;100434.66;;;16.12;100.00
71567;BME280;59403;47.456;19.120;2023-05-07T05:43:34;100427.19;;;16.29;100.00
71567;BME280;59403;47.456;19.120;2023-05-07T05:46:01;100430.00;;;16.42;100.00
71567;BME280;59403;47.456;19.120;2023-05-07T05:48:30;100419.53;;;16.68;100.00
71567;BME280;59403;47.456;19.120;2023-05-07T05:50:57;100423.63;;;17.04;99.91
71567;BME280;59403;47.456;19.120;2023-05-07T05:53:23;100423.16;;;17.29;98.34
71567;BME280;59403;47.456;19.120;2023-05-07T05:55:50;100425.53;;;17.51;98.00
71567;BME280;59403;47.456;19.120;2023-05-07T05:58:19;100426.97;;;17.47;95.58
71567;BME280;59403;47.456;19.120;2023-05-07T06:00:46;100425.78;;;17.63;95.09
71567;BME280;59403;47.456;19.120;2023-05-07T06:03:13;100420.66;;;17.81;95.83
71567;BME280;59403;47.456;19.120;2023-05-07T06:05:40;100420.47;;;17.89;95.15
71567;BME280;59403;47.456;19.120;2023-05-07T06:08:07;100434.72;;;17.89;94.75
71567;BME280;59403;47.456;19.120;2023-05-07T06:10:35;100423.59;;;17.92;94.87
71567;BME280;59403;47.456;19.120;2023-05-07T06:13:02;100418.03;;;17.94;94.47
71567;BME280;59403;47.456;19.120;2023-05-07T06:15:30;100422.75;;;17.92;93.93
71567;BME280;59403;47.456;19.120;2023-05-07T06:17:57;100417.59;;;17.97;93.47
71567;BME280;59403;47.456;19.120;2023-05-07T06:20:24;100424.25;;;18.21;92.71
71567;BME280;59403;47.456;19.120;2023-05-07T06:22:52;100430.25;;;18.42;92.13
71567;BME280;59403;47.456;19.120;2023-05-07T06:25:19;100426.50;;;18.37;91.18
71567;BME280;59403;47.456;19.120;2023-05-07T06:27:46;100435.62;;;18.55;90.95
71567;BME280;59403;47.456;19.120;2023-05-07T06:30:13;100430.47;;;18.54;88.64
71567;BME280;59403;47.456;19.120;2023-05-07T06:32:41;100431.28;;;18.61;88.27
71567;BME280;59403;47.456;19.120;2023-05-07T06:35:08;100425.06;;;18.67;88.75
71567;BME280;59403;47.456;19.120;2023-05-07T06:37:35;100426.25;;;18.97;87.47
71567;BME280;59403;47.456;19.120;2023-05-07T06:40:05;100433.66;;;19.08;87.13
71567;BME280;59403;47.456;19.120;2023-05-07T06:42:49;100433.19;;;19.31;86.15
71567;BME280;59403;47.456;19.120;2023-05-07T06:45:27;100424.13;;;19.25;84.10
71567;BME280;59403;47.456;19.120;2023-05-07T06:47:55;100438.16;;;19.20;85.55
71567;BME280;59403;47.456;19.120;2023-05-07T06:50:22;100436.97;;;19.03;86.32
71567;BME280;59403;47.456;19.120;2023-05-07T06:52:49;100431.22;;;18.93;85.59
71567;BME280;59403;47.456;19.120;2023-05-07T06:55:16;100436.06;;;19.29;84.94
71567;BME280;59403;47.456;19.120;2023-05-07T06:57:42;100428.84;;;19.30;84.02
71567;BME280;59403;47.456;19.120;2023-05-07T07:00:10;100429.81;;;19.48;81.95
71567;BME280;59403;47.456;19.120;2023-05-07T07:02:37;100433.09;;;19.57;79.71
71567;BME280;59403;47.456;19.120;2023-05-07T07:05:09;100435.72;;;19.70;80.41
71567;BME280;59403;47.456;19.120;2023-05-07T07:07:38;100433.72;;;19.90;78.87
71567;BME280;59403;47.456;19.120;2023-05-07T07:10:18;100429.22;;;20.21;79.20
71567;BME280;59403;47.456;19.120;2023-05-07T07:12:45;100437.31;;;20.15;74.66
71567;BME280;59403;47.456;19.120;2023-05-07T07:15:12;100438.06;;;20.28;76.07
71567;BME280;59403;47.456;19.120;2023-05-07T07:17:39;100437.34;;;20.08;75.23
71567;BME280;59403;47.456;19.120;2023-05-07T07:20:09;100437.06;;;19.85;73.58
71567;BME280;59403;47.456;19.120;2023-05-07T07:22:35;100439.81;;;19.72;75.64
71567;BME280;59403;47.456;19.120;2023-05-07T07:25:03;100449.72;;;19.78;75.49
71567;BME280;59403;47.456;19.120;2023-05-07T07:27:30;100450.91;;;19.89;75.34
71567;BME280;59403;47.456;19.120;2023-05-07T07:29:57;100454.37;;;19.96;75.99
71567;BME280;59403;47.456;19.120;2023-05-07T07:32:23;100459.25;;;19.74;75.74
71567;BME280;59403;47.456;19.120;2023-05-07T07:34:51;100461.06;;;19.87;74.41
71567;BME280;59403;47.456;19.120;2023-05-07T07:37:19;100456.22;;;19.64;71.89
71567;BME280;59403;47.456;19.120;2023-05-07T07:39:46;100457.75;;;19.85;74.86
71567;BME280;59403;47.456;19.120;2023-05-07T07:42:13;100461.97;;;20.05;73.97
71567;BME280;59403;47.456;19.120;2023-05-07T07:44:40;100459.84;;;20.45;72.86
71567;BME280;59403;47.456;19.120;2023-05-07T07:47:07;100451.50;;;20.96;70.96
71567;BME280;59403;47.456;19.120;2023-05-07T07:49:34;100461.44;;;20.77;70.78
71567;BME280;59403;47.456;19.120;2023-05-07T07:52:01;100460.00;;;20.99;70.92
71567;BME280;59403;47.456;19.120;2023-05-07T07:54:30;100459.28;;;20.86;70.59
71567;BME280;59403;47.456;19.120;2023-05-07T07:56:56;100467.28;;;20.74;71.07
71567;BME280;59403;47.456;19.120;2023-05-07T07:59:23;100464.47;;;20.63;69.22
71567;BME280;59403;47.456;19.120;2023-05-07T08:01:50;100463.31;;;20.77;70.58
71567;BME280;59403;47.456;19.120;2023-05-07T08:04:20;100459.78;;;21.01;68.74
71567;BME280;59403;47.456;19.120;2023-05-07T08:06:47;100462.69;;;20.75;70.52
71567;BME280;59403;47.456;19.120;2023-05-07T08:09:14;100465.22;;;20.70;71.42
71567;BME280;59403;47.456;19.120;2023-05-07T08:11:42;100461.44;;;20.53;70.15
71567;BME280;59403;47.456;19.120;2023-05-07T08:14:09;100472.91;;;20.42;69.63
71567;BME280;59403;47.456;19.120;2023-05-07T08:16:37;100465.13;;;20.33;71.75
71567;BME280;59403;47.456;19.120;2023-05-07T08:19:03;100467.19;;;20.31;72.17
71567;BME280;59403;47.456;19.120;2023-05-07T08:21:30;100466.84;;;20.21;70.84
71567;BME280;59403;47.456;19.120;2023-05-07T08:23:58;100466.84;;;20.21;71.58
71567;BME280;59403;47.456;19.120;2023-05-07T08:26:25;100459.28;;;20.05;70.06
71567;BME280;59403;47.456;19.120;2023-05-07T08:28:53;100463.84;;;20.05;72.27
71567;BME280;59403;47.456;19.120;2023-05-07T08:31:20;100464.75;;;19.92;72.43
71567;BME280;59403;47.456;19.120;2023-05-07T08:33:47;100459.44;;;19.79;73.07
71567;BME280;59403;47.456;19.120;2023-05-07T08:36:13;100450.34;;;19.74;73.36
71567;BME280;59403;47.456;19.120;2023-05-07T08:38:40;100455.38;;;19.70;74.65
71567;BME280;59403;47.456;19.120;2023-05-07T08:41:10;100453.31;;;19.66;75.17
71567;BME280;59403;47.456;19.120;2023-05-07T08:43:37;100450.00;;;19.64;75.29
71567;BME280;59403;47.456;19.120;2023-05-07T08:46:09;100449.19;;;19.63;75.74
71567;BME280;59403;47.456;19.120;2023-05-07T08:48:36;100451.22;;;19.68;76.94
71567;BME280;59403;47.456;19.120;2023-05-07T08:51:03;100450.19;;;19.69;77.43
71567;BME280;59403;47.456;19.120;2023-05-07T08:53:31;100449.78;;;19.72;77.53
71567;BME280;59403;47.456;19.120;2023-05-07T08:55:58;100456.34;;;19.82;75.79
71567;BME280;59403;47.456;19.120;2023-05-07T08:58:25;100457.69;;;19.98;75.51
71567;BME280;59403;47.456;19.120;2023-05-07T09:00:52;100459.84;;;20.14;76.01
71567;BME280;59403;47.456;19.120;2023-05-07T09:03:22;100459.28;;;20.37;74.47
71567;BME280;59403;47.456;19.120;2023-05-07T09:05:48;100462.59;;;20.39;74.95
71567;BME280;59403;47.456;19.120;2023-05-07T09:08:15;100453.09;;;20.36;74.68
71567;BME280;59403;47.456;19.120;2023-05-07T09:10:42;100458.53;;;20.54;74.32
71567;BME280;59403;47.456;19.120;2023-05-07T09:13:11;100457.97;;;20.70;74.03
71567;BME280;59403;47.456;19.120;2023-05-07T09:15:39;100447.16;;;20.77;74.74
71567;BME280;59403;47.456;19.120;2023-05-07T09:18:06;100450.81;;;21.07;73.56
71567;BME280;59403;47.456;19.120;2023-05-07T09:20:36;100450.91;;;20.94;75.12
71567;BME280;59403;47.456;19.120;2023-05-07T09:23:03;100456.66;;;21.04;74.60
71567;BME280;59403;47.456;19.120;2023-05-07T09:25:31;100458.00;;;21.31;74.01
71567;BME280;59403;47.456;19.120;2023-05-07T09:27:59;100452.25;;;21.46;71.95
71567;BME280;59403;47.456;19.120;2023-05-07T09:30:27;100457.37;;;21.83;71.76
71567;BME280;59403;47.456;19.120;2023-05-07T09:32:54;100456.84;;;21.57;71.23
71567;BME280;59403;47.456;19.120;2023-05-07T09:35:21;100454.31;;;21.62;70.71
71567;BME280;59403;47.456;19.120;2023-05-07T09:37:51;100458.25;;;21.95;69.12
71567;BME280;59403;47.456;19.120;2023-05-07T09:40:22;100451.88;;;22.31;68.83
71567;BME280;59403;47.456;19.120;2023-05-07T09:42:49;100449.28;;;22.13;67.62
71567;BME280;59403;47.456;19.120;2023-05-07T09:45:16;100451.16;;;21.65;68.31
71567;BME280;59403;47.456;19.120;2023-05-07T09:47:48;100457.81;;;21.62;67.75
71567;BME280;59403;47.456;19.120;2023-05-07T09:50:16;100451.22;;;21.94;68.87
71567;BME280;59403;47.456;19.120;2023-05-07T09:52:45;100450.34;;;22.23;66.39
71567;BME280;59403;47.456;19.120;2023-05-07T09:55:13;100457.56;;;22.52;65.14
71567;BME280;59403;47.456;19.120;2023-05-07T09:57:42;100442.41;;;22.40;65.07
71567;BME280;59403;47.456;19.120;2023-05-07T10:00:10;100452.62;;;22.49;65.69
71567;BME280;59403;47.456;19.120;2023-05-07T10:02:39;100446.56;;;22.01;64.88
71567;BME280;59403;47.456;19.120;2023-05-07T10:05:12;100450.91;;;21.84;66.50
71567;BME280;59403;47.456;19.120;2023-05-07T10:07:39;100450.81;;;21.43;67.82
71567;BME280;59403;47.456;19.120;2023-05-07T10:10:07;100450.00;;;21.06;64.90
71567;BME280;59403;47.456;19.120;2023-05-07T10:12:36;100447.16;;;21.19;66.28
71567;BME280;59403;47.456;19.120;2023-05-07T10:15:06;100453.38;;;21.02;68.62
71567;BME280;59403;47.456;19.120;2023-05-07T10:17:35;100460.37;;;21.03;70.36
71567;BME280;59403;47.456;19.120;2023-05-07T10:20:02;100454.44;;;20.94;71.58
71567;BME280;59403;47.456;19.120;2023-05-07T10:22:31;100460.91;;;20.69;72.44
71567;BME280;59403;47.456;19.120;2023-05-07T10:25:02;100459.75;;;20.58;72.74
71567;BME280;59403;47.456;19.120;2023-05-07T10:27:30;100453.97;;;20.55;73.16
71567;BME280;59403;47.456;19.120;2023-05-07T10:30:07;100456.50;;;20.50;74.78
71567;BME280;59403;47.456;19.120;2023-05-07T10:32:40;100457.59;;;20.42;73.83
71567;BME280;59403;47.456;19.120;2023-05-07T10:35:12;100465.22;;;20.45;74.15
71567;BME280;59403;47.456;19.120;2023-05-07T10:37:40;100461.44;;;20.28;75.26
71567;BME280;59403;47.456;19.120;2023-05-07T10:40:09;100460.44;;;20.22;74.76
71567;BME280;59403;47.456;19.120;2023-05-07T10:42:37;100458.56;;;20.23;75.15
71567;BME280;59403;47.456;19.120;2023-05-07T10:45:24;100456.28;;;20.26;75.12
71567;BME280;59403;47.456;19.120;2023-05-07T10:48:11;100456.81;;;20.35;74.75
71567;BME280;59403;47.456;19.120;2023-05-07T10:50:39;100463.59;;;20.44;73.26
71567;BME280;59403;47.456;19.120;2023-05-07T10:53:23;100457.37;;;20.68;72.65
71567;BME280;59403;47.456;19.120;2023-05-07T10:56:24;100454.28;;;20.89;72.77
71567;BME280;59403;47.456;19.120;2023-05-07T10:58:52;100457.41;;;21.11;71.58
71567;BME280;59403;47.456;19.120;2023-05-07T11:01:52;100457.19;;;21.12;68.82
71567;BME280;59403;47.456;19.120;2023-05-07T11:04:19;100450.19;;;21.59;67.07
71567;BME280;59403;47.456;19.120;2023-05-07T11:10:00;100456.81;;;21.93;63.96
71567;BME280;59403;47.456;19.120;2023-05-07T11:12:54;100452.22;;;21.82;64.07
71567;BME280;59403;47.456;19.120;2023-05-07T11:15:39;100446.22;;;22.09;62.10
71567;BME280;59403;47.456;19.120;2023-05-07T11:18:09;100446.47;;;22.31;63.81
71567;BME280;59403;47.456;19.120;2023-05-07T11:20:47;100445.91;;;22.29;63.98
71567;BME280;59403;47.456;19.120;2023-05-07T11:26:29;100435.06;;;22.93;63.63
71567;BME280;59403;47.456;19.120;2023-05-07T11:28:57;100442.81;;;22.90;64.42
71567;BME280;59403;47.456;19.120;2023-05-07T11:31:26;100438.22;;;23.02;64.74
71567;BME280;59403;47.456;19.120;2023-05-07T11:33:57;100441.00;;;23.18;62.48
71567;BME280;59403;47.456;19.120;2023-05-07T11:36:24;100437.69;;;23.79;62.38
71567;BME280;59403;47.456;19.120;2023-05-07T11:38:52;100437.56;;;23.57;61.84
71567;BME280;59403;47.456;19.120;2023-05-07T11:41:19;100433.25;;;23.22;61.82
71567;BME280;59403;47.456;19.120;2023-05-07T11:43:59;100438.31;;;22.95;63.37
71567;BME280;59403;47.456;19.120;2023-05-07T11:46:27;100434.56;;;22.50;59.61
71567;BME280;59403;47.456;19.120;2023-05-07T11:48:56;100436.19;;;22.51;59.21
71567;BME280;59403;47.456;19.120;2023-05-07T11:51:24;100431.75;;;23.14;59.17
71567;BME280;59403;47.456;19.120;2023-05-07T11:53:52;100435.84;;;23.40;56.68
71567;BME280;59403;47.456;19.120;2023-05-07T11:56:20;100430.72;;;23.55;55.86
71567;BME280;59403;47.456;19.120;2023-05-07T11:58:47;100437.69;;;23.79;53.97
71567;BME280;59403;47.456;19.120;2023-05-07T12:01:15;100417.28;;;24.33;52.64
71567;BME280;59403;47.456;19.120;2023-05-07T12:03:45;100423.28;;;24.35;51.45
71567;BME280;59403;47.456;19.120;2023-05-07T12:06:14;100423.06;;;24.69;51.29
71567;BME280;59403;47.456;19.120;2023-05-07T12:08:43;100414.25;;;24.29;51.73
71567;BME280;59403;47.456;19.120;2023-05-07T12:11:13;100413.22;;;23.57;52.85
71567;BME280;59403;47.456;19.120;2023-05-07T12:13:41;100424.72;;;23.02;53.82
71567;BME280;59403;47.456;19.120;2023-05-07T12:16:09;100409.34;;;22.79;52.32
71567;BME280;59403;47.456;19.120;2023-05-07T12:18:37;100410.16;;;22.68;54.37
71567;BME280;59403;47.456;19.120;2023-05-07T12:21:05;100401.00;;;22.46;54.58
71567;BME280;59403;47.456;19.120;2023-05-07T12:23:34;100414.03;;;23.07;53.79
71567;BME280;59403;47.456;19.120;2023-05-07T12:26:02;100411.25;;;23.41;53.08
71567;BME280;59403;47.456;19.120;2023-05-07T12:28:36;100413.44;;;23.28;52.62
71567;BME280;59403;47.456;19.120;2023-05-07T12:31:04;100413.91;;;23.53;53.76
71567;BME280;59403;47.456;19.120;2023-05-07T12:33:32;100407.69;;;23.81;51.85
71567;BME280;59403;47.456;19.120;2023-05-07T12:36:04;100406.13;;;24.29;51.12
71567;BME280;59403;47.456;19.120;2023-05-07T12:38:37;100398.59;;;23.87;51.01
71567;BME280;59403;47.456;19.120;2023-05-07T12:41:05;100397.84;;;23.46;52.23
71567;BME280;59403;47.456;19.120;2023-05-07T12:43:32;100405.81;;;23.53;52.53
71567;BME280;59403;47.456;19.120;2023-05-07T12:46:00;100397.78;;;23.18;52.17
71567;BME280;59403;47.456;19.120;2023-05-07T12:48:28;100396.91;;;22.90;53.11
71567;BME280;59403;47.456;19.120;2023-05-07T12:50:56;100401.03;;;22.69;52.36
71567;BME280;59403;47.456;19.120;2023-05-07T12:53:24;100396.06;;;22.89;51.52
71567;BME280;59403;47.456;19.120;2023-05-07T12:55:55;100397.63;;;22.74;51.90
71567;BME280;59403;47.456;19.120;2023-05-07T12:58:25;100397.47;;;22.57;52.30
71567;BME280;59403;47.456;19.120;2023-05-07T13:00:52;100395.69;;;22.28;53.78
71567;BME280;59403;47.456;19.120;2023-05-07T13:03:24;100388.53;;;22.33;53.49
71567;BME280;59403;47.456;19.120;2023-05-07T13:06:02;100389.13;;;22.24;53.36
71567;BME280;59403;47.456;19.120;2023-05-07T13:08:31;100387.94;;;22.20;53.45
71567;BME280;59403;47.456;19.120;2023-05-07T13:11:01;100385.94;;;22.27;54.83
71567;BME280;59403;47.456;19.120;2023-05-07T13:13:29;100387.47;;;22.11;53.22
71567;BME280;59403;47.456;19.120;2023-05-07T13:15:56;100392.97;;;22.05;52.17
71567;BME280;59403;47.456;19.120;2023-05-07T13:18:24;100383.44;;;22.02;52.92
71567;BME280;59403;47.456;19.120;2023-05-07T13:20:51;100382.38;;;22.03;52.40
71567;BME280;59403;47.456;19.120;2023-05-07T13:23:18;100383.81;;;22.06;51.58
71567;BME280;59403;47.456;19.120;2023-05-07T13:25:46;100382.66;;;22.13;52.06
71567;BME280;59403;47.456;19.120;2023-05-07T13:28:14;100379.53;;;22.63;50.52
71567;BME280;59403;47.456;19.120;2023-05-07T13:30:41;100379.16;;;22.82;49.35
71567;BME280;59403;47.456;19.120;2023-05-07T13:33:08;100361.88;;;22.48;51.13
71567;BME280;59403;47.456;19.120;2023-05-07T13:35:35;100371.91;;;22.60;51.61
71567;BME280;59403;47.456;19.120;2023-05-07T13:38:02;100366.34;;;22.31;52.67
71567;BME280;59403;47.456;19.120;2023-05-07T13:40:29;100362.94;;;22.13;53.08
71567;BME280;59403;47.456;19.120;2023-05-07T13:42:57;100366.66;;;22.00;52.75
71567;BME280;59403;47.456;19.120;2023-05-07T13:45:26;100362.22;;;21.94;52.02
71567;BME280;59403;47.456;19.120;2023-05-07T13:47:55;100353.66;;;21.97;52.71
71567;BME280;59403;47.456;19.120;2023-05-07T13:50:22;100360.59;;;22.05;52.99
71567;BME280;59403;47.456;19.120;2023-05-07T13:52:49;100357.94;;;22.39;53.07
71567;BME280;59403;47.456;19.120;2023-05-07T13:55:17;100360.38;;;22.87;48.85
71567;BME280;59403;47.456;19.120;2023-05-07T13:57:44;100365.31;;;22.79;47.61
71567;BME280;59403;47.456;19.120;2023-05-07T14:00:12;100346.63;;;22.89;49.10
71567;BME280;59403;47.456;19.120;2023-05-07T14:02:40;100350.22;;;23.06;49.79
71567;BME280;59403;47.456;19.120;2023-05-07T14:05:07;100347.94;;;22.86;48.45
71567;BME280;59403;47.456;19.120;2023-05-07T14:07:35;100348.28;;;22.78;47.65
71567;BME280;59403;47.456;19.120;2023-05-07T14:10:02;100345.59;;;22.90;48.38
71567;BME280;59403;47.456;19.120;2023-05-07T14:12:30;100358.97;;;22.85;47.86
71567;BME280;59403;47.456;19.120;2023-05-07T14:14:56;100348.44;;;22.60;50.31
71567;BME280;59403;47.456;19.120;2023-05-07T14:17:23;100346.03;;;22.87;50.92
71567;BME280;59403;47.456;19.120;2023-05-07T14:19:54;100339.50;;;22.83;49.08
71567;BME280;59403;47.456;19.120;2023-05-07T14:22:21;100351.94;;;22.72;49.02
71567;BME280;59403;47.456;19.120;2023-05-07T14:24:49;100353.09;;;22.53;48.87
71567;BME280;59403;47.456;19.120;2023-05-07T14:27:16;100351.34;;;22.70;49.29
71567;BME280;59403;47.456;19.120;2023-05-07T14:29:43;100354.28;;;22.80;48.71
71567;BME280;59403;47.456;19.120;2023-05-07T14:32:11;100345.81;;;22.88;49.65
71567;BME280;59403;47.456;19.120;2023-05-07T14:34:38;100355.28;;;23.02;50.74
71567;BME280;59403;47.456;19.120;2023-05-07T14:37:06;100364.34;;;22.96;48.11
71567;BME280;59403;47.456;19.120;2023-05-07T14:39:33;100355.34;;;22.79;48.27
71567;BME280;59403;47.456;19.120;2023-05-07T14:42:00;100368.63;;;22.69;48.06
71567;BME280;59403;47.456;19.120;2023-05-07T14:44:27;100370.47;;;22.34;49.68
71567;BME280;59403;47.456;19.120;2023-05-07T14:46:54;100363.41;;;22.10;50.34
71567;BME280;59403;47.456;19.120;2023-05-07T14:49:20;100362.94;;;22.01;51.24
71567;BME280;59403;47.456;19.120;2023-05-07T14:51:47;100369.47;;;22.05;51.30
71567;BME280;59403;47.456;19.120;2023-05-07T14:54:15;100369.37;;;22.12;49.89
71567;BME280;59403;47.456;19.120;2023-05-07T14:56:42;100368.69;;;22.16;50.17
71567;BME280;59403;47.456;19.120;2023-05-07T14:59:09;100369.75;;;22.27;50.07
71567;BME280;59403;47.456;19.120;2023-05-07T15:01:37;100370.81;;;22.37;50.14
71567;BME280;59403;47.456;19.120;2023-05-07T15:04:05;100373.16;;;22.34;50.74
71567;BME280;59403;47.456;19.120;2023-05-07T15:06:32;100370.13;;;22.30;50.75
71567;BME280;59403;47.456;19.120;2023-05-07T15:08:59;100373.06;;;22.29;51.36
71567;BME280;59403;47.456;19.120;2023-05-07T15:11:27;100371.75;;;22.31;51.12
71567;BME280;59403;47.456;19.120;2023-05-07T15:13:54;100364.69;;;22.19;51.05
71567;BME280;59403;47.456;19.120;2023-05-07T15:16:21;100375.34;;;22.02;50.56
71567;BME280;59403;47.456;19.120;2023-05-07T15:18:48;100376.72;;;21.93;51.81
71567;BME280;59403;47.456;19.120;2023-05-07T15:21:15;100379.25;;;21.77;51.99
71567;BME280;59403;47.456;19.120;2023-05-07T15:23:42;100377.34;;;21.77;52.14
71567;BME280;59403;47.456;19.120;2023-05-07T15:26:10;100375.59;;;21.71;53.60
71567;BME280;59403;47.456;19.120;2023-05-07T15:28:38;100373.50;;;21.73;54.28
71567;BME280;59403;47.456;19.120;2023-05-07T15:31:05;100370.53;;;21.63;53.67
71567;BME280;59403;47.456;19.120;2023-05-07T15:33:32;100380.03;;;21.66;54.50
71567;BME280;59403;47.456;19.120;2023-05-07T15:35:59;100373.72;;;21.72;54.20
71567;BME280;59403;47.456;19.120;2023-05-07T15:38:27;100375.28;;;21.79;54.61
71567;BME280;59403;47.456;19.120;2023-05-07T15:40:53;100375.66;;;21.83;54.51
71567;BME280;59403;47.456;19.120;2023-05-07T15:43:21;100373.03;;;21.76;53.99
71567;BME280;59403;47.456;19.120;2023-05-07T15:45:49;100373.25;;;21.75;54.84
71567;BME280;59403;47.456;19.120;2023-05-07T15:48:16;100378.28;;;21.71;53.95
71567;BME280;59403;47.456;19.120;2023-05-07T15:50:44;100372.16;;;21.64;54.46
71567;BME280;59403;47.456;19.120;2023-05-07T15:53:11;100370.66;;;21.68;54.04
71567;BME280;59403;47.456;19.120;2023-05-07T15:55:39;100367.25;;;21.61;53.60
71567;BME280;59403;47.456;19.120;2023-05-07T15:58:07;100374.81;;;21.53;54.30
71567;BME280;59403;47.456;19.120;2023-05-07T16:00:34;100379.97;;;21.54;54.00
71567;BME280;59403;47.456;19.120;2023-05-07T16:03:03;100374.25;;;21.62;54.05
71567;BME280;59403;47.456;19.120;2023-05-07T16:05:30;100371.06;;;21.54;52.19
71567;BME280;59403;47.456;19.120;2023-05-07T16:07:57;100374.91;;;21.46;51.96
71567;BME280;59403;47.456;19.120;2023-05-07T16:10:24;100382.09;;;21.34;51.07
71567;BME280;59403;47.456;19.120;2023-05-07T16:12:52;100382.19;;;21.27;52.08
71567;BME280;59403;47.456;19.120;2023-05-07T16:15:18;100379.00;;;21.19;51.14
71567;BME280;59403;47.456;19.120;2023-05-07T16:17:46;100379.44;;;21.16;52.15
71567;BME280;59403;47.456;19.120;2023-05-07T16:20:14;100378.47;;;21.10;52.22
71567;BME280;59403;47.456;19.120;2023-05-07T16:22:44;100377.88;;;21.08;52.18
71567;BME280;59403;47.456;19.120;2023-05-07T16:25:11;100378.94;;;21.07;50.57
71567;BME280;59403;47.456;19.120;2023-05-07T16:27:39;100375.03;;;21.03;50.75
71567;BME280;59403;47.456;19.120;2023-05-07T16:30:07;100376.28;;;21.01;50.12
71567;BME280;59403;47.456;19.120;2023-05-07T16:32:33;100379.03;;;20.94;50.50
71567;BME280;59403;47.456;19.120;2023-05-07T16:35:00;100375.31;;;20.95;51.01
71567;BME280;59403;47.456;19.120;2023-05-07T16:37:29;100374.75;;;20.87;51.56
71567;BME280;59403;47.456;19.120;2023-05-07T16:39:55;100378.75;;;20.84;51.18